createdAt,value
2019-02-14T00:07:36.433Z,3.30
2019-02-14T00:37:37.790Z,3.40
2019-02-14T01:07:39.222Z,3.50
2019-02-14T01:37:40.708Z,3.00
2019-02-14T02:07:42.347Z,3.67
2019-02-14T02:37:43.713Z,3.20
2019-02-14T03:07:45.043Z,4.10
2019-02-14T03:37:46.376Z,5.73
2019-02-14T04:07:47.749Z,49.70
2019-02-14T04:37:49.070Z,19.30
2019-02-14T05:07:50.399Z,22.40
2019-02-14T05:37:51.765Z,8.00
2019-02-14T06:07:53.131Z,17.33
2019-02-14T06:37:54.454Z,6.80
2019-02-14T07:07:55.828Z,9.30
2019-02-14T07:37:57.251Z,7.07
2019-02-14T08:08:00.555Z,10.17
2019-02-14T08:38:01.718Z,7.07
2019-02-14T09:08:03.067Z,19.13
2019-02-14T09:38:04.388Z,10.73
2019-02-14T10:08:12.486Z,17.77
2019-02-14T10:38:09.751Z,7.80
2019-02-14T11:08:11.159Z,5.83
2019-02-14T11:38:12.491Z,8.20
2019-02-14T12:08:13.840Z,6.00
2019-02-14T12:38:15.187Z,9.77
2019-02-14T13:08:16.504Z,11.47
2019-02-14T13:38:17.789Z,16.53
2019-02-14T14:08:19.111Z,12.40
2019-02-14T14:38:20.423Z,13.87
2019-02-14T15:08:21.750Z,14.97
2019-02-14T15:38:23.070Z,18.03
2019-02-14T16:08:24.424Z,39.37
2019-02-14T16:38:25.846Z,36.87
2019-02-14T17:08:27.196Z,43.40
2019-02-14T17:38:28.476Z,44.60
2019-02-14T18:08:29.857Z,74.90
2019-02-14T18:38:31.240Z,95.70
2019-02-14T19:08:32.554Z,62.60
2019-02-14T19:38:34.260Z,126.97
2019-02-14T20:08:35.617Z,117.47
2019-02-14T20:38:36.933Z,127.70
2019-02-14T21:08:38.335Z,117.00
2019-02-14T21:38:39.753Z,279.60
2019-02-14T22:08:41.426Z,127.10
2019-02-14T22:38:43.125Z,77.30
2019-02-14T23:08:44.633Z,101.10
2019-02-14T23:38:45.983Z,69.87
